createdAt,value
2023-04-09T00:01:10.690Z,11.80
2023-04-09T00:03:38.548Z,12.10
2023-04-09T00:06:05.717Z,11.20
2023-04-09T00:08:33.014Z,12.37
2023-04-09T00:10:59.842Z,10.60
2023-04-09T00:13:38.449Z,7.40
2023-04-09T00:16:07.284Z,8.80
2023-04-09T00:18:34.559Z,10.40
2023-04-09T00:21:01.280Z,11.53
2023-04-09T00:23:28.128Z,9.47
2023-04-09T00:25:55.140Z,11.60
2023-04-09T00:28:21.914Z,10.80
2023-04-09T00:30:48.752Z,10.37
2023-04-09T00:33:15.741Z,7.60
2023-04-09T00:35:42.515Z,9.23
2023-04-09T00:38:09.400Z,9.07
2023-04-09T00:40:36.247Z,11.67
2023-04-09T00:43:03.393Z,8.63
2023-04-09T00:45:30.604Z,8.93
2023-04-09T00:47:57.410Z,9.50
2023-04-09T00:50:24.247Z,8.33
2023-04-09T00:52:51.993Z,8.37
2023-04-09T00:55:18.911Z,10.40
2023-04-09T00:57:45.803Z,8.27
2023-04-09T01:00:13.255Z,8.23
2023-04-09T01:02:40.750Z,12.70
2023-04-09T01:05:08.581Z,8.93
2023-04-09T01:07:41.840Z,10.27
2023-04-09T01:10:35.469Z,9.33
2023-04-09T01:13:11.225Z,11.47
2023-04-09T01:15:44.186Z,10.47
2023-04-09T01:18:19.919Z,10.63
2023-04-09T01:20:56.277Z,9.17
2023-04-09T01:23:52.434Z,8.30
2023-04-09T01:26:49.926Z,11.80
2023-04-09T01:29:20.036Z,11.07
2023-04-09T01:31:48.485Z,10.13
2023-04-09T01:34:16.767Z,13.33
2023-04-09T01:36:49.484Z,7.13
2023-04-09T01:39:16.642Z,6.87
2023-04-09T01:41:44.008Z,8.30
2023-04-09T01:44:12.466Z,9.63
2023-04-09T01:46:40.163Z,8.53
2023-04-09T01:49:07.487Z,9.80
2023-04-09T01:51:34.532Z,10.23
2023-04-09T01:54:01.583Z,9.57
2023-04-09T01:56:28.438Z,9.73
2023-04-09T01:58:55.536Z,9.70
2023-04-09T02:02:12.043Z,10.73
2023-04-09T02:04:42.698Z,9.40
2023-04-09T02:07:38.433Z,10.77
2023-04-09T02:10:08.201Z,9.60
2023-04-09T02:12:37.341Z,9.27
2023-04-09T02:15:05.966Z,10.13
2023-04-09T02:17:33.120Z,9.83
2023-04-09T02:19:59.902Z,12.00
2023-04-09T02:22:26.580Z,8.70
2023-04-09T02:24:53.377Z,9.90
2023-04-09T02:27:20.082Z,9.50
2023-04-09T02:29:46.768Z,11.23
2023-04-09T02:32:13.848Z,11.93
2023-04-09T02:34:40.705Z,13.97
2023-04-09T02:37:07.551Z,10.50
2023-04-09T02:39:34.276Z,10.27
2023-04-09T02:42:01.354Z,10.90
2023-04-09T02:44:28.121Z,10.93
2023-04-09T02:46:56.468Z,10.27
2023-04-09T02:49:23.291Z,14.50
2023-04-09T02:51:50.156Z,10.40
2023-04-09T02:54:16.945Z,10.80
2023-04-09T02:56:43.650Z,9.87
2023-04-09T02:59:10.350Z,15.13
2023-04-09T03:01:37.277Z,11.43
2023-04-09T03:04:04.292Z,12.13
2023-04-09T03:06:31.113Z,12.40
2023-04-09T03:08:57.817Z,11.33
2023-04-09T03:11:24.546Z,9.23
2023-04-09T03:13:51.674Z,12.60
2023-04-09T03:16:18.768Z,9.93
2023-04-09T03:18:45.768Z,9.90
2023-04-09T03:21:14.891Z,12.20
2023-04-09T03:23:46.546Z,11.30
2023-04-09T03:26:13.450Z,12.63
2023-04-09T03:28:48.534Z,12.10
2023-04-09T03:31:16.807Z,10.60
2023-04-09T03:33:45.004Z,11.03
2023-04-09T03:36:12.365Z,17.00
2023-04-09T03:39:00.450Z,10.07
2023-04-09T03:41:34.547Z,12.50
2023-04-09T03:44:05.124Z,11.13
2023-04-09T03:46:40.640Z,12.80
2023-04-09T03:49:09.320Z,11.93
2023-04-09T03:51:40.760Z,12.03
2023-04-09T03:54:08.006Z,11.30
2023-04-09T03:56:34.840Z,12.60
2023-04-09T03:59:03.856Z,16.77
2023-04-09T04:01:37.464Z,13.23
2023-04-09T04:04:04.617Z,13.83
2023-04-09T04:06:38.395Z,13.27
2023-04-09T04:09:24.045Z,16.80
2023-04-09T04:11:56.432Z,13.43
2023-04-09T04:14:27.086Z,13.00
2023-04-09T04:17:00.804Z,15.47
2023-04-09T04:19:30.766Z,12.63
2023-04-09T04:21:58.191Z,13.33
2023-04-09T04:24:25.198Z,15.60
2023-04-09T04:26:51.917Z,14.40
2023-04-09T04:29:20.435Z,13.03
2023-04-09T04:31:54.615Z,12.50
2023-04-09T04:34:24.147Z,11.53
2023-04-09T04:36:59.061Z,14.53
2023-04-09T04:39:31.243Z,10.53
2023-04-09T04:42:05.168Z,12.53
2023-04-09T04:44:32.180Z,13.03
2023-04-09T04:47:08.495Z,14.67
2023-04-09T04:49:35.479Z,19.53
2023-04-09T04:52:05.276Z,12.30
2023-04-09T04:54:33.431Z,14.47
2023-04-09T04:57:01.337Z,14.20
2023-04-09T04:59:32.787Z,15.63
2023-04-09T05:02:04.296Z,12.67
2023-04-09T05:04:36.680Z,13.70
2023-04-09T05:07:04.473Z,14.10
2023-04-09T05:09:31.458Z,13.40
2023-04-09T05:12:05.408Z,12.47
2023-04-09T05:14:32.205Z,12.37
2023-04-09T05:16:59.129Z,11.73
2023-04-09T05:19:32.196Z,14.13
2023-04-09T05:22:02.401Z,12.50
2023-04-09T05:24:30.180Z,16.40
2023-04-09T05:26:57.487Z,13.30
2023-04-09T05:29:24.862Z,15.00
2023-04-09T05:31:51.604Z,15.67
2023-04-09T05:34:25.474Z,17.87
2023-04-09T05:36:54.655Z,13.00
2023-04-09T05:39:23.266Z,16.93
2023-04-09T05:41:52.347Z,12.27
2023-04-09T05:44:21.884Z,16.60
2023-04-09T05:46:50.674Z,18.20
2023-04-09T05:49:21.838Z,16.37
2023-04-09T05:51:51.934Z,17.07
2023-04-09T05:54:26.248Z,15.80
2023-04-09T05:56:53.349Z,15.93
2023-04-09T05:59:21.014Z,14.60
2023-04-09T06:01:47.976Z,17.13
2023-04-09T06:04:15.053Z,28.30
2023-04-09T06:06:42.372Z,18.30
2023-04-09T06:09:09.119Z,16.83
2023-04-09T06:11:38.372Z,17.87
2023-04-09T06:14:05.158Z,18.47
2023-04-09T06:16:33.770Z,23.83
2023-04-09T06:19:00.923Z,21.60
2023-04-09T06:21:27.612Z,28.03
2023-04-09T06:23:54.603Z,29.80
2023-04-09T06:26:21.748Z,26.20
2023-04-09T06:28:48.456Z,26.27
2023-04-09T06:31:16.465Z,29.37
2023-04-09T06:33:43.310Z,23.67
2023-04-09T06:36:10.257Z,26.30
2023-04-09T06:38:36.994Z,28.53
2023-04-09T06:41:06.700Z,23.10
2023-04-09T06:43:33.463Z,25.80
2023-04-09T06:46:00.191Z,25.47
2023-04-09T06:48:26.992Z,28.07
2023-04-09T06:50:53.678Z,29.27
2023-04-09T06:53:20.605Z,38.13
2023-04-09T06:55:47.284Z,24.93
2023-04-09T06:58:14.056Z,29.27
2023-04-09T07:00:40.907Z,31.63
2023-04-09T07:03:09.205Z,28.10
2023-04-09T07:05:36.498Z,29.17
2023-04-09T07:08:04.144Z,35.33
2023-04-09T07:10:31.048Z,31.80
2023-04-09T07:12:57.976Z,28.77
2023-04-09T07:15:24.955Z,29.93
2023-04-09T07:17:51.734Z,26.83
2023-04-09T07:20:18.708Z,29.83
2023-04-09T07:22:45.506Z,29.00
2023-04-09T07:25:12.608Z,29.23
2023-04-09T07:27:39.269Z,38.27
2023-04-09T07:30:06.801Z,36.20
2023-04-09T07:32:33.503Z,29.80
2023-04-09T07:35:00.614Z,28.27
2023-04-09T07:37:27.428Z,26.20
2023-04-09T07:39:54.264Z,26.80
2023-04-09T07:42:21.039Z,23.30
2023-04-09T07:44:48.039Z,26.97
2023-04-09T07:47:14.910Z,25.07
2023-04-09T07:49:41.729Z,27.83
2023-04-09T07:52:08.835Z,25.00
2023-04-09T07:54:35.993Z,23.60
2023-04-09T07:57:02.946Z,27.03
2023-04-09T07:59:30.776Z,25.13
2023-04-09T08:01:57.771Z,23.17
2023-04-09T08:04:24.967Z,20.10
2023-04-09T08:06:52.213Z,26.50
2023-04-09T08:09:19.604Z,26.93
2023-04-09T08:11:47.703Z,22.17
2023-04-09T08:14:15.483Z,20.07
2023-04-09T08:16:47.227Z,20.43
2023-04-09T08:19:16.299Z,18.17
2023-04-09T08:21:43.844Z,21.20
2023-04-09T08:24:11.808Z,17.03
2023-04-09T08:26:39.925Z,15.67
2023-04-09T08:29:07.312Z,17.63
2023-04-09T08:31:34.740Z,13.90
2023-04-09T08:34:01.936Z,18.97
2023-04-09T08:36:28.898Z,15.30
2023-04-09T08:38:56.680Z,17.63
2023-04-09T08:41:25.561Z,17.40
2023-04-09T08:46:23.661Z,14.47
2023-04-09T08:48:52.147Z,15.77
2023-04-09T08:51:21.297Z,15.80
2023-04-09T08:53:59.515Z,13.43
2023-04-09T08:56:28.111Z,11.87
2023-04-09T08:58:56.277Z,16.13
2023-04-09T09:01:24.792Z,16.53
2023-04-09T09:04:04.622Z,15.30
2023-04-09T09:06:33.865Z,13.70
2023-04-09T09:09:12.213Z,17.13
2023-04-09T09:11:41.375Z,12.43
2023-04-09T09:14:13.051Z,14.57
2023-04-09T09:16:45.381Z,14.97
2023-04-09T09:19:36.459Z,17.13
2023-04-09T09:22:04.926Z,15.10
2023-04-09T09:24:35.114Z,10.87
2023-04-09T09:27:03.022Z,12.30
2023-04-09T09:29:29.872Z,13.80
2023-04-09T09:31:56.975Z,23.03
2023-04-09T09:34:24.830Z,18.63
2023-04-09T09:36:52.081Z,14.43
2023-04-09T09:39:18.889Z,23.40
2023-04-09T09:41:46.500Z,16.97
2023-04-09T09:44:31.250Z,17.10
2023-04-09T09:46:59.203Z,17.40
2023-04-09T09:49:26.247Z,16.00
2023-04-09T09:51:56.747Z,23.67
2023-04-09T09:54:25.977Z,14.70
2023-04-09T09:56:55.775Z,16.87
2023-04-09T09:59:32.046Z,17.03
2023-04-09T10:02:06.126Z,15.67
2023-04-09T10:04:38.114Z,19.20
2023-04-09T10:07:06.942Z,14.40
2023-04-09T10:09:39.960Z,18.10
2023-04-09T10:12:09.566Z,17.47
2023-04-09T10:14:37.311Z,15.33
2023-04-09T10:17:04.813Z,17.10
2023-04-09T10:19:35.561Z,18.13
2023-04-09T10:22:10.074Z,14.23
2023-04-09T10:24:36.846Z,12.60
2023-04-09T10:27:12.077Z,13.30
2023-04-09T10:29:48.482Z,13.47
2023-04-09T10:32:23.627Z,15.73
2023-04-09T10:34:51.933Z,15.27
2023-04-09T10:37:24.613Z,13.60
2023-04-09T10:39:52.544Z,17.27
2023-04-09T10:42:42.227Z,14.83
2023-04-09T10:45:15.333Z,14.67
2023-04-09T10:47:43.713Z,13.97
2023-04-09T10:50:18.984Z,13.83
2023-04-09T10:52:46.079Z,11.47
2023-04-09T10:55:48.009Z,14.70
2023-04-09T10:58:14.751Z,14.40
2023-04-09T11:00:43.385Z,10.23
2023-04-09T11:03:23.924Z,12.87
2023-04-09T11:05:52.613Z,12.20
2023-04-09T11:08:19.682Z,12.00
2023-04-09T11:10:49.833Z,11.70
2023-04-09T11:13:20.314Z,13.03
2023-04-09T11:15:47.095Z,9.23
2023-04-09T11:18:22.589Z,8.93
2023-04-09T11:20:50.060Z,11.47
2023-04-09T11:23:18.274Z,13.47
2023-04-09T11:25:49.702Z,6.83
2023-04-09T11:28:16.801Z,7.30
2023-04-09T11:30:43.916Z,8.23
2023-04-09T11:33:10.793Z,9.23
2023-04-09T11:35:37.825Z,9.47
2023-04-09T11:38:09.512Z,6.57
2023-04-09T11:40:36.944Z,8.27
2023-04-09T11:43:03.931Z,6.97
2023-04-09T11:45:32.735Z,7.90
2023-04-09T11:47:59.943Z,6.50
2023-04-09T11:50:27.003Z,6.40
2023-04-09T11:52:54.119Z,5.83
2023-04-09T11:55:30.952Z,5.47
2023-04-09T11:58:01.256Z,4.80
2023-04-09T12:00:29.465Z,12.43
2023-04-09T12:03:03.047Z,6.97
2023-04-09T12:05:35.098Z,8.53
2023-04-09T12:08:05.080Z,6.57
2023-04-09T12:10:35.063Z,8.10
2023-04-09T12:13:11.497Z,8.10
2023-04-09T12:15:41.772Z,5.00
2023-04-09T12:18:10.075Z,3.90
2023-04-09T12:20:47.758Z,6.27
2023-04-09T12:23:15.078Z,8.33
2023-04-09T12:25:43.396Z,7.17
2023-04-09T12:28:16.310Z,6.33
2023-04-09T12:30:43.655Z,5.33
2023-04-09T12:33:11.510Z,7.43
2023-04-09T12:35:38.716Z,8.00
2023-04-09T12:38:05.675Z,5.57
2023-04-09T12:40:32.426Z,7.33
2023-04-09T12:42:59.195Z,7.17
2023-04-09T12:45:26.887Z,25.17
2023-04-09T12:47:53.678Z,6.93
2023-04-09T12:50:20.506Z,9.57
2023-04-09T12:52:47.317Z,12.30
2023-04-09T12:55:14.896Z,6.50
2023-04-09T12:57:45.242Z,6.80
2023-04-09T13:00:12.843Z,7.30
2023-04-09T13:02:39.798Z,8.97
2023-04-09T13:05:07.364Z,7.40
2023-04-09T13:07:34.098Z,8.27
2023-04-09T13:10:01.366Z,6.23
2023-04-09T13:12:28.464Z,11.67
2023-04-09T13:14:55.661Z,8.23
2023-04-09T13:17:23.113Z,6.93
2023-04-09T13:19:51.054Z,8.17
2023-04-09T13:22:18.957Z,7.73
2023-04-09T13:24:45.844Z,9.00
2023-04-09T13:27:12.806Z,5.90
2023-04-09T13:29:39.838Z,9.30
2023-04-09T13:32:10.918Z,8.10
2023-04-09T13:34:39.280Z,11.00
2023-04-09T13:37:06.424Z,6.80
2023-04-09T13:39:33.290Z,9.00
2023-04-09T13:42:01.469Z,5.90
2023-04-09T13:44:30.977Z,8.93
2023-04-09T13:46:57.699Z,7.80
2023-04-09T13:49:25.253Z,7.60
2023-04-09T13:51:52.293Z,8.03
2023-04-09T13:54:19.234Z,6.60
2023-04-09T13:56:46.636Z,8.20
2023-04-09T13:59:13.407Z,10.23
2023-04-09T14:01:40.854Z,9.77
2023-04-09T14:04:08.408Z,6.90
2023-04-09T14:06:35.451Z,11.53
2023-04-09T14:09:02.223Z,7.87
2023-04-09T14:11:29.018Z,10.83
2023-04-09T14:13:56.402Z,7.60
2023-04-09T14:16:23.754Z,9.43
2023-04-09T14:18:51.250Z,8.40
2023-04-09T14:21:18.708Z,8.90
2023-04-09T14:23:45.662Z,10.20
2023-04-09T14:26:12.411Z,9.50
2023-04-09T14:28:39.132Z,9.83
2023-04-09T14:31:06.313Z,10.40
2023-04-09T14:33:33.085Z,7.60
2023-04-09T14:36:00.160Z,9.93
2023-04-09T14:38:27.072Z,8.00
2023-04-09T14:40:53.763Z,10.30
2023-04-09T14:43:20.451Z,10.10
2023-04-09T14:45:47.519Z,10.13
2023-04-09T14:48:14.208Z,9.57
2023-04-09T14:50:41.142Z,10.33
2023-04-09T14:53:07.853Z,10.20
2023-04-09T14:55:34.870Z,8.77
2023-04-09T14:58:04.258Z,8.97
2023-04-09T15:00:31.911Z,7.30
2023-04-09T15:02:59.843Z,7.43
2023-04-09T15:05:27.164Z,10.40
2023-04-09T15:07:55.600Z,6.60
2023-04-09T15:10:22.306Z,6.57
2023-04-09T15:12:49.079Z,8.07
2023-04-09T15:15:15.770Z,11.30
2023-04-09T15:17:42.586Z,8.43
2023-04-09T15:20:09.739Z,6.60
2023-04-09T15:22:36.437Z,7.63
2023-04-09T15:25:03.560Z,10.03
2023-04-09T15:27:30.345Z,8.63
2023-04-09T15:29:57.052Z,7.40
2023-04-09T15:32:23.886Z,6.57
2023-04-09T15:34:50.684Z,10.73
2023-04-09T15:37:17.379Z,6.83
2023-04-09T15:39:44.211Z,8.70
2023-04-09T15:42:12.765Z,5.80
2023-04-09T15:44:41.371Z,8.13
2023-04-09T15:47:08.110Z,8.20
2023-04-09T15:49:36.753Z,5.03
2023-04-09T15:52:03.893Z,11.10
2023-04-09T15:54:31.277Z,8.17
2023-04-09T15:56:57.989Z,5.30
2023-04-09T15:59:24.819Z,7.70
2023-04-09T16:01:52.912Z,7.97
2023-04-09T16:04:19.805Z,6.33
2023-04-09T16:06:46.658Z,4.57
2023-04-09T16:09:13.473Z,5.53
2023-04-09T16:11:40.589Z,14.97
2023-04-09T16:14:08.992Z,15.97
2023-04-09T16:16:36.833Z,5.40
2023-04-09T16:19:03.796Z,9.00
2023-04-09T16:21:31.217Z,10.63
2023-04-09T16:23:57.977Z,5.97
2023-04-09T16:26:24.689Z,5.00
2023-04-09T16:28:51.782Z,5.50
2023-04-09T16:31:18.696Z,4.00
2023-04-09T16:33:45.418Z,3.93
2023-04-09T16:36:12.158Z,2.97
2023-04-09T16:38:38.909Z,4.00
2023-04-09T16:41:05.989Z,2.93
2023-04-09T16:43:33.122Z,3.50
2023-04-09T16:46:00.415Z,2.40
2023-04-09T16:48:27.130Z,2.43
2023-04-09T16:50:53.851Z,3.03
2023-04-09T16:53:20.844Z,5.57
2023-04-09T16:55:47.710Z,4.93
2023-04-09T16:58:14.753Z,3.87
2023-04-09T17:00:41.624Z,3.83
2023-04-09T17:03:08.523Z,9.60
2023-04-09T17:05:35.416Z,5.67
2023-04-09T17:08:02.304Z,8.03
2023-04-09T17:10:29.380Z,4.07
2023-04-09T17:12:56.384Z,4.80
2023-04-09T17:15:24.976Z,3.70
2023-04-09T17:17:53.248Z,3.77
2023-04-09T17:20:21.801Z,11.60
2023-04-09T17:22:48.587Z,9.90
2023-04-09T17:25:15.973Z,7.60
2023-04-09T17:27:43.930Z,6.97
2023-04-09T17:30:12.286Z,8.37
2023-04-09T17:32:41.377Z,6.67
2023-04-09T17:35:08.568Z,8.03
2023-04-09T17:37:35.670Z,6.63
2023-04-09T17:40:03.257Z,7.07
2023-04-09T17:42:30.341Z,5.80
2023-04-09T17:44:57.641Z,7.77
2023-04-09T17:47:24.948Z,6.37
2023-04-09T17:49:52.696Z,9.37
2023-04-09T17:52:20.405Z,7.90
2023-04-09T17:54:50.462Z,7.77
2023-04-09T17:57:17.441Z,6.83
2023-04-09T17:59:44.322Z,7.50
2023-04-09T18:02:11.656Z,7.80
2023-04-09T18:04:38.666Z,8.83
2023-04-09T18:07:05.932Z,5.60
2023-04-09T18:09:32.849Z,6.90
2023-04-09T18:12:01.364Z,4.73
2023-04-09T18:14:31.132Z,8.03
2023-04-09T18:16:58.036Z,6.87
2023-04-09T18:19:24.997Z,6.30
2023-04-09T18:21:51.704Z,5.80
2023-04-09T18:24:18.620Z,6.90
2023-04-09T18:26:45.290Z,7.03
2023-04-09T18:29:12.700Z,7.03
2023-04-09T18:31:39.470Z,7.00
2023-04-09T18:34:06.723Z,8.10
2023-04-09T18:36:33.551Z,19.83
2023-04-09T18:39:00.641Z,6.77
2023-04-09T18:41:27.464Z,8.37
2023-04-09T18:43:57.190Z,7.70
2023-04-09T18:46:24.192Z,7.87
2023-04-09T18:48:51.740Z,8.73
2023-04-09T18:51:20.695Z,8.03
2023-04-09T18:53:52.859Z,9.77
2023-04-09T18:56:24.486Z,14.43
2023-04-09T18:58:51.950Z,7.47
2023-04-09T19:01:20.015Z,9.27
2023-04-09T19:03:47.759Z,14.40
2023-04-09T19:06:19.638Z,9.20
2023-04-09T19:08:47.345Z,9.50
2023-04-09T19:11:14.761Z,8.27
2023-04-09T19:13:41.545Z,8.90
2023-04-09T19:16:11.391Z,11.00
2023-04-09T19:18:38.363Z,15.40
2023-04-09T19:21:08.703Z,9.87
2023-04-09T19:23:35.739Z,9.90
2023-04-09T19:26:03.173Z,9.03
2023-04-09T19:28:30.054Z,10.70
2023-04-09T19:30:56.866Z,9.60
2023-04-09T19:33:26.862Z,9.67
2023-04-09T19:35:55.248Z,11.37
2023-04-09T19:38:22.158Z,9.60
2023-04-09T19:40:49.046Z,9.30
2023-04-09T19:43:16.314Z,9.83
2023-04-09T19:45:43.439Z,14.67
2023-04-09T19:48:10.435Z,15.73
2023-04-09T19:50:38.432Z,13.73
2023-04-09T19:53:06.222Z,10.43
2023-04-09T19:55:36.129Z,11.23
2023-04-09T19:58:03.487Z,12.17
2023-04-09T20:00:30.592Z,7.67
2023-04-09T20:02:57.841Z,8.60
2023-04-09T20:05:24.980Z,12.00
2023-04-09T20:07:54.958Z,11.57
2023-04-09T20:10:21.649Z,12.07
2023-04-09T20:12:49.981Z,11.10
2023-04-09T20:15:19.851Z,9.73
2023-04-09T20:17:48.377Z,11.17
2023-04-09T20:20:19.622Z,10.13
2023-04-09T20:22:55.726Z,10.50
2023-04-09T20:25:23.715Z,13.13
2023-04-09T20:27:53.104Z,10.93
2023-04-09T20:30:20.516Z,10.13
2023-04-09T20:32:49.036Z,9.80
2023-04-09T20:35:16.691Z,10.07
2023-04-09T20:37:44.061Z,9.90
2023-04-09T20:40:13.679Z,11.57
2023-04-09T20:42:43.910Z,13.60
2023-04-09T20:45:11.268Z,10.10
2023-04-09T20:47:38.028Z,10.43
2023-04-09T20:50:05.138Z,10.60
2023-04-09T20:52:32.291Z,11.57
2023-04-09T20:54:59.143Z,8.97
2023-04-09T20:57:25.825Z,14.03
2023-04-09T20:59:53.907Z,10.67
2023-04-09T21:02:21.214Z,11.60
2023-04-09T21:04:48.034Z,10.23
2023-04-09T21:07:14.750Z,11.77
2023-04-09T21:09:41.511Z,13.67
2023-04-09T21:12:08.222Z,9.10
2023-04-09T21:14:34.988Z,10.13
2023-04-09T21:17:01.878Z,9.03
2023-04-09T21:19:28.770Z,8.23
2023-04-09T21:21:55.456Z,10.37
2023-04-09T21:24:22.683Z,13.47
2023-04-09T21:26:52.109Z,11.97
2023-04-09T21:29:22.288Z,10.00
2023-04-09T21:31:49.778Z,10.50
2023-04-09T21:34:16.821Z,8.83
2023-04-09T21:36:45.271Z,9.00
2023-04-09T21:39:12.310Z,15.60
2023-04-09T21:41:39.589Z,10.00
2023-04-09T21:44:08.818Z,9.83
2023-04-09T21:46:40.548Z,13.33
2023-04-09T21:49:08.197Z,12.03
2023-04-09T21:51:35.663Z,11.60
2023-04-09T21:54:09.979Z,10.20
2023-04-09T21:56:37.116Z,10.23
2023-04-09T21:59:04.154Z,10.10
2023-04-09T22:01:31.777Z,10.10
2023-04-09T22:03:59.789Z,10.70
2023-04-09T22:06:27.313Z,11.83
2023-04-09T22:08:56.662Z,11.97
2023-04-09T22:11:28.796Z,9.00
2023-04-09T22:13:57.228Z,8.97
2023-04-09T22:16:24.877Z,9.40
2023-04-09T22:18:53.410Z,15.20
2023-04-09T22:21:20.423Z,15.10
2023-04-09T22:23:47.156Z,11.17
2023-04-09T22:26:14.189Z,9.40
2023-04-09T22:28:40.984Z,8.00
2023-04-09T22:31:08.334Z,13.43
2023-04-09T22:33:35.093Z,13.83
2023-04-09T22:36:01.998Z,8.53
2023-04-09T22:38:28.775Z,13.03
2023-04-09T22:40:55.803Z,7.63
2023-04-09T22:43:22.748Z,9.00
2023-04-09T22:45:54.769Z,10.87
2023-04-09T22:48:22.775Z,10.07
2023-04-09T22:50:50.380Z,10.93
2023-04-09T22:53:20.973Z,11.60
2023-04-09T22:55:51.167Z,9.60
2023-04-09T22:58:19.075Z,8.70
2023-04-09T23:00:47.578Z,10.67
2023-04-09T23:03:14.711Z,11.40
2023-04-09T23:05:41.902Z,10.30
2023-04-09T23:08:09.110Z,11.30
2023-04-09T23:10:36.156Z,9.67
2023-04-09T23:13:03.314Z,11.30
2023-04-09T23:15:30.387Z,11.20
2023-04-09T23:17:57.165Z,11.50
2023-04-09T23:20:24.032Z,14.77
2023-04-09T23:22:50.932Z,13.60
2023-04-09T23:25:17.985Z,11.30
2023-04-09T23:27:45.099Z,11.97
2023-04-09T23:30:17.223Z,10.37
2023-04-09T23:32:45.257Z,17.47
2023-04-09T23:35:12.108Z,9.63
2023-04-09T23:37:39.912Z,9.87
2023-04-09T23:40:07.671Z,20.23
2023-04-09T23:42:34.600Z,12.87
2023-04-09T23:45:04.132Z,14.70
2023-04-09T23:47:33.246Z,9.47
2023-04-09T23:50:05.667Z,17.90
2023-04-09T23:52:35.358Z,9.43
2023-04-09T23:55:08.749Z,9.37
2023-04-09T23:57:35.559Z,10.33
